Time;durP1;ratioP1;P1;durP2;ratioP2;P2;SDS_P1;SDS_P2;PMS_P1;PMS_P2;Temp;Humidity;BMP_temperature;BMP_pressure;BME280_temperature;BME280_humidity;BME280_pressure;Samples;Min_cycle;Max_cycle;Signal;HPM_P1;HPM_P2
2024/03/25 00:01:22;;;;;;;2.00;1.27;;;11.00;99.90;;;;;;5010969;28;20029;-79
2024/03/25 00:03:48;;;;;;;2.17;1.40;;;11.00;99.90;;;;;;5007992;28;20454;-79
2024/03/25 00:06:14;;;;;;;2.20;1.10;;;11.00;99.90;;;;;;5006035;28;20044;-79
2024/03/25 00:08:39;;;;;;;2.67;1.40;;;11.00;99.90;;;;;;5009262;28;20088;-79
2024/03/25 00:11:05;;;;;;;4.28;1.15;;;11.00;99.90;;;;;;5010118;28;20398;-79
2024/03/25 00:13:30;;;;;;;1.05;1.00;;;11.00;99.90;;;;;;5024558;28;20112;-78
2024/03/25 00:15:56;;;;;;;1.25;1.10;;;11.00;99.90;;;;;;5007733;28;20105;-78
2024/03/25 00:18:21;;;;;;;1.10;0.85;;;11.00;99.90;;;;;;5026309;28;20034;-78
2024/03/25 00:20:47;;;;;;;1.13;0.88;;;11.00;99.90;;;;;;5011713;28;20021;-79
2024/03/25 00:23:12;;;;;;;3.55;0.93;;;11.00;99.90;;;;;;5025687;28;20462;-79
2024/03/25 00:25:38;;;;;;;1.17;1.08;;;11.00;99.90;;;;;;5029346;28;20095;-79
2024/03/25 00:28:04;;;;;;;2.35;1.33;;;10.90;99.90;;;;;;5021949;28;20034;-79
2024/03/25 00:30:30;;;;;;;4.57;1.30;;;11.00;99.90;;;;;;5010434;28;20022;-78
2024/03/25 00:32:55;;;;;;;5.32;1.20;;;11.00;99.90;;;;;;5026466;28;20108;-79
2024/03/25 00:35:21;;;;;;;3.90;1.27;;;11.00;99.90;;;;;;5023914;28;20068;-79
2024/03/25 00:37:46;;;;;;;6.60;1.55;;;11.00;99.90;;;;;;5025923;28;20029;-79
2024/03/25 00:40:12;;;;;;;4.28;1.30;;;11.00;99.90;;;;;;5010231;28;20028;-79
2024/03/25 00:42:38;;;;;;;3.17;1.30;;;11.00;99.90;;;;;;5009010;28;20053;-78
2024/03/25 00:45:05;;;;;;;3.10;1.63;;;10.90;99.90;;;;;;5023980;28;20029;-78
2024/03/25 00:47:31;;;;;;;6.55;1.20;;;10.90;99.90;;;;;;5024434;28;20018;-79
2024/03/25 00:49:57;;;;;;;2.97;1.60;;;10.90;99.90;;;;;;5029086;28;20022;-78
2024/03/25 00:52:22;;;;;;;2.97;1.40;;;10.90;99.90;;;;;;5007222;28;20013;-79
2024/03/25 00:54:48;;;;;;;1.88;1.45;;;10.90;99.90;;;;;;5008152;28;20018;-80
2024/03/25 00:57:14;;;;;;;1.65;1.20;;;10.90;99.90;;;;;;5024659;28;20574;-79
2024/03/25 00:59:39;;;;;;;1.35;1.20;;;10.90;99.90;;;;;;5006590;28;20037;-79
2024/03/25 01:02:05;;;;;;;2.63;1.05;;;10.90;99.90;;;;;;5025870;28;20084;-78
2024/03/25 01:04:31;;;;;;;1.67;1.20;;;10.90;99.90;;;;;;5028772;28;20029;-78
2024/03/25 01:06:56;;;;;;;3.20;1.70;;;10.90;99.90;;;;;;5006216;28;20029;-78
2024/03/25 01:09:22;;;;;;;2.67;1.45;;;11.00;99.90;;;;;;5026510;28;20021;-78
2024/03/25 01:11:48;;;;;;;1.60;1.33;;;11.00;99.90;;;;;;5011659;28;20049;-79
2024/03/25 01:14:13;;;;;;;3.75;1.85;;;11.00;99.90;;;;;;5008332;28;20017;-78
2024/03/25 01:16:39;;;;;;;5.55;1.60;;;11.00;99.90;;;;;;5011510;28;20124;-79
2024/03/25 01:19:04;;;;;;;2.83;1.55;;;11.00;99.90;;;;;;5031064;28;20056;-79
2024/03/25 01:21:30;;;;;;;3.33;1.60;;;11.00;99.90;;;;;;5029988;28;20022;-79
2024/03/25 01:23:56;;;;;;;5.00;1.10;;;11.00;99.90;;;;;;5008694;28;20026;-78
2024/03/25 01:26:21;;;;;;;4.03;1.55;;;11.00;99.90;;;;;;5011092;28;20025;-79
2024/03/25 01:28:47;;;;;;;2.83;1.10;;;11.00;99.90;;;;;;5031345;28;20083;-79
2024/03/25 01:31:13;;;;;;;2.38;1.30;;;11.00;99.90;;;;;;5026011;28;20480;-78
2024/03/25 01:33:39;;;;;;;3.30;1.30;;;11.00;99.90;;;;;;5030243;28;20017;-79
2024/03/25 01:36:05;;;;;;;3.60;1.65;;;11.00;99.90;;;;;;5031687;28;20021;-78
2024/03/25 01:38:31;;;;;;;3.67;1.30;;;11.00;99.90;;;;;;5009709;28;20033;-78
2024/03/25 01:41:10;;;;;;;6.88;1.60;;;11.00;99.90;;;;;;5029524;28;20076;-79
2024/03/25 01:43:36;;;;;;;2.17;1.27;;;11.00;99.90;;;;;;5011289;28;20026;-79
2024/03/25 01:46:02;;;;;;;3.17;1.08;;;11.00;99.90;;;;;;5010586;28;20021;-79
2024/03/25 01:48:28;;;;;;;3.70;1.70;;;11.00;99.90;;;;;;5031123;28;20076;-79
2024/03/25 01:50:55;;;;;;;3.28;1.27;;;10.90;99.90;;;;;;5032739;28;20487;-78
2024/03/25 01:53:20;;;;;;;4.43;1.33;;;10.90;99.90;;;;;;5010770;28;20033;-78
2024/03/25 01:55:48;;;;;;;2.40;1.35;;;10.90;99.90;;;;;;5013480;28;20017;-78
2024/03/25 01:58:14;;;;;;;3.15;1.67;;;10.90;99.90;;;;;;5029945;28;20026;-78
2024/03/25 02:00:41;;;;;;;2.72;1.48;;;10.90;99.90;;;;;;5009032;28;20041;-79
2024/03/25 02:03:06;;;;;;;4.05;1.15;;;10.90;99.90;;;;;;5032492;28;20032;-79
2024/03/25 02:05:34;;;;;;;2.17;1.42;;;10.90;99.90;;;;;;5030935;28;20029;-79
2024/03/25 02:08:01;;;;;;;3.58;1.38;;;10.90;99.90;;;;;;5013700;28;20103;-79
2024/03/25 02:10:27;;;;;;;4.70;1.50;;;10.90;99.90;;;;;;5011117;28;20020;-78
2024/03/25 02:12:53;;;;;;;2.42;1.65;;;10.90;99.90;;;;;;5009414;28;20021;-78
2024/03/25 02:15:19;;;;;;;2.85;1.45;;;10.90;99.90;;;;;;5008757;28;20025;-78
2024/03/25 02:17:44;;;;;;;4.80;1.55;;;10.90;99.90;;;;;;5008828;28;20025;-78
2024/03/25 02:20:11;;;;;;;3.58;1.40;;;10.90;99.90;;;;;;5028288;28;20435;-79
2024/03/25 02:22:37;;;;;;;5.50;1.58;;;11.00;99.90;;;;;;5028845;28;20029;-78
2024/03/25 02:25:08;;;;;;;3.92;1.45;;;10.90;99.90;;;;;;5011558;28;20030;-79
2024/03/25 02:27:35;;;;;;;1.42;1.33;;;11.00;99.90;;;;;;5011901;28;20029;-79
2024/03/25 02:30:10;;;;;;;1.67;1.40;;;11.00;99.90;;;;;;5011926;28;20033;-78
2024/03/25 02:32:36;;;;;;;1.60;1.38;;;11.00;99.90;;;;;;5008919;28;20031;-79
2024/03/25 02:35:13;;;;;;;3.97;1.50;;;11.00;99.90;;;;;;5028638;28;20442;-79
2024/03/25 02:37:39;;;;;;;8.07;2.00;;;11.00;99.90;;;;;;5027427;28;20479;-79
2024/03/25 02:40:07;;;;;;;7.30;1.40;;;11.00;99.90;;;;;;5010320;28;20561;-79
2024/03/25 02:42:33;;;;;;;2.08;1.38;;;11.00;99.90;;;;;;5028564;28;20049;-78
2024/03/25 02:44:59;;;;;;;3.00;1.20;;;11.00;99.90;;;;;;5030479;28;20013;-79
2024/03/25 02:47:25;;;;;;;3.50;1.65;;;11.00;99.90;;;;;;5011457;28;20030;-78
2024/03/25 02:49:51;;;;;;;1.55;1.27;;;11.00;99.90;;;;;;5009532;28;20017;-81
2024/03/25 02:52:18;;;;;;;3.75;1.70;;;11.00;99.90;;;;;;5027253;28;20014;-81
2024/03/25 02:54:44;;;;;;;2.28;1.40;;;11.00;99.90;;;;;;5025287;28;20026;-79
2024/03/25 02:57:09;;;;;;;6.80;1.80;;;11.00;99.90;;;;;;5025898;28;20017;-79
2024/03/25 02:59:35;;;;;;;4.72;1.33;;;11.00;99.90;;;;;;5004574;28;20104;-78
2024/03/25 03:02:00;;;;;;;2.53;1.40;;;11.00;99.90;;;;;;5022604;28;20056;-79
2024/03/25 03:04:26;;;;;;;2.67;1.55;;;11.00;99.90;;;;;;5006385;28;20022;-79
2024/03/25 03:06:51;;;;;;;1.98;1.30;;;11.00;99.90;;;;;;5024932;28;20025;-79
2024/03/25 03:09:17;;;;;;;2.78;1.67;;;11.00;99.90;;;;;;5002326;28;20379;-79
2024/03/25 03:11:43;;;;;;;2.80;1.45;;;11.00;99.90;;;;;;5008034;28;20072;-79
2024/03/25 03:14:09;;;;;;;2.22;1.30;;;11.00;99.90;;;;;;5011566;28;20025;-79
2024/03/25 03:16:35;;;;;;;2.40;1.35;;;11.00;99.90;;;;;;5020460;28;20648;-79
2024/03/25 03:19:01;;;;;;;4.53;1.60;;;11.00;99.90;;;;;;5024691;28;20037;-81
2024/03/25 03:21:27;;;;;;;2.97;1.40;;;11.00;99.90;;;;;;5024977;28;20429;-79
2024/03/25 03:23:52;;;;;;;5.25;1.52;;;10.90;99.90;;;;;;5025693;28;20031;-80
2024/03/25 03:26:19;;;;;;;3.22;1.75;;;10.90;99.90;;;;;;5007602;28;20108;-80
2024/03/25 03:28:44;;;;;;;4.20;1.75;;;10.90;99.90;;;;;;5008920;28;20064;-78
2024/03/25 03:31:10;;;;;;;2.28;1.38;;;10.90;99.90;;;;;;5009262;28;20045;-78
2024/03/25 03:33:35;;;;;;;4.45;1.73;;;10.90;99.90;;;;;;5002009;28;20025;-79
2024/03/25 03:36:01;;;;;;;1.52;1.40;;;10.90;99.90;;;;;;5010456;28;20017;-79
2024/03/25 03:38:26;;;;;;;4.20;2.03;;;10.90;99.90;;;;;;5009342;28;20075;-81
2024/03/25 03:41:03;;;;;;;6.90;1.90;;;10.80;99.90;;;;;;5024436;28;20032;-79
2024/03/25 03:43:29;;;;;;;2.53;1.75;;;10.80;99.90;;;;;;5007071;28;20394;-79
2024/03/25 03:45:54;;;;;;;4.07;2.05;;;10.80;99.90;;;;;;5011153;28;20085;-79
2024/03/25 03:48:20;;;;;;;2.55;1.70;;;10.80;99.90;;;;;;5029217;28;20079;-80
2024/03/25 03:50:46;;;;;;;3.90;1.88;;;10.80;99.90;;;;;;5010465;28;20048;-80
2024/03/25 03:53:12;;;;;;;3.08;1.60;;;10.80;99.90;;;;;;5028367;28;20025;-78
2024/03/25 03:55:37;;;;;;;3.35;1.80;;;10.80;99.90;;;;;;5010317;28;20017;-79
2024/03/25 03:58:03;;;;;;;3.85;1.80;;;10.90;99.90;;;;;;5009369;28;20029;-78
2024/03/25 04:00:29;;;;;;;9.52;1.67;;;10.80;99.90;;;;;;5026560;28;20514;-79
2024/03/25 04:02:54;;;;;;;11.48;2.25;;;10.90;99.90;;;;;;5029629;28;20049;-79
2024/03/25 04:05:20;;;;;;;2.85;1.65;;;10.80;99.90;;;;;;5010580;28;20510;-78
2024/03/25 04:07:46;;;;;;;3.00;1.70;;;10.80;99.90;;;;;;5026551;28;20022;-79
2024/03/25 04:10:11;;;;;;;3.33;2.00;;;10.80;99.90;;;;;;5028249;28;20036;-79
2024/03/25 04:12:38;;;;;;;2.95;1.98;;;10.80;99.90;;;;;;5009638;28;20515;-78
2024/03/25 04:15:04;;;;;;;4.80;1.95;;;10.80;99.90;;;;;;5027906;28;20471;-79
2024/03/25 04:17:31;;;;;;;3.83;2.17;;;10.80;99.90;;;;;;5010906;28;20018;-79
2024/03/25 04:20:00;;;;;;;5.18;1.98;;;10.80;99.90;;;;;;5029485;28;20430;-79
2024/03/25 04:22:26;;;;;;;5.80;1.70;;;10.90;99.90;;;;;;5027078;28;20429;-79
2024/03/25 04:24:51;;;;;;;5.60;1.95;;;10.80;99.90;;;;;;5006700;28;20104;-78
2024/03/25 04:27:20;;;;;;;3.90;2.63;;;10.90;99.90;;;;;;5028907;28;20025;-78
2024/03/25 04:29:46;;;;;;;8.65;2.33;;;10.80;99.90;;;;;;5029325;28;20358;-79
2024/03/25 04:32:12;;;;;;;3.45;2.15;;;10.80;99.90;;;;;;5032397;28;20025;-79
2024/03/25 04:34:37;;;;;;;2.85;2.05;;;10.80;99.90;;;;;;5011276;28;20108;-79
2024/03/25 04:37:04;;;;;;;3.13;2.30;;;10.80;99.90;;;;;;5029104;28;20489;-79
2024/03/25 04:39:30;;;;;;;3.63;2.35;;;10.80;99.90;;;;;;5026831;28;20083;-79
2024/03/25 04:41:56;;;;;;;9.48;2.67;;;10.80;99.90;;;;;;5011260;28;20546;-79
2024/03/25 04:44:22;;;;;;;7.85;3.40;;;10.80;99.90;;;;;;5011927;28;20049;-79
2024/03/25 04:46:47;;;;;;;7.28;2.88;;;10.80;99.90;;;;;;5013819;28;20022;-79
2024/03/25 04:49:13;;;;;;;6.30;3.08;;;10.70;99.90;;;;;;5009085;28;20029;-81
2024/03/25 04:51:39;;;;;;;8.20;3.20;;;10.70;99.90;;;;;;5014960;28;20017;-78
2024/03/25 04:54:05;;;;;;;5.70;2.50;;;10.80;99.90;;;;;;5010266;28;20475;-79
2024/03/25 04:56:31;;;;;;;3.63;2.53;;;10.80;99.90;;;;;;5010497;28;20048;-79
2024/03/25 04:59:01;;;;;;;3.88;2.55;;;10.80;99.90;;;;;;5009750;28;20492;-78
2024/03/25 05:01:27;;;;;;;6.25;3.00;;;10.80;99.90;;;;;;5012533;28;20041;-79
2024/03/25 05:03:53;;;;;;;4.13;2.42;;;10.80;99.90;;;;;;5028300;28;20025;-78
2024/03/25 05:06:18;;;;;;;8.65;3.35;;;10.80;99.90;;;;;;5034485;28;20094;-79
2024/03/25 05:08:44;;;;;;;3.58;2.63;;;10.80;99.90;;;;;;5012086;28;20022;-79
2024/03/25 05:11:10;;;;;;;8.70;2.60;;;10.80;99.90;;;;;;5031646;28;20017;-80
2024/03/25 05:13:35;;;;;;;6.20;2.92;;;10.90;99.90;;;;;;5008112;28;20163;-79
2024/03/25 05:16:01;;;;;;;5.20;2.80;;;10.90;99.90;;;;;;5014848;28;20055;-79
2024/03/25 05:18:26;;;;;;;6.13;2.60;;;10.80;99.90;;;;;;5007457;28;20028;-79
2024/03/25 05:20:52;;;;;;;4.20;2.63;;;10.80;99.90;;;;;;5012883;28;20043;-79
2024/03/25 05:23:17;;;;;;;3.30;2.45;;;10.90;99.90;;;;;;5014408;28;20600;-79
2024/03/25 05:25:43;;;;;;;4.88;2.65;;;10.80;99.90;;;;;;5030657;28;20601;-79
2024/03/25 05:28:08;;;;;;;3.75;2.45;;;10.90;99.90;;;;;;5010430;28;20640;-79
2024/03/25 05:30:34;;;;;;;3.90;2.40;;;10.80;99.90;;;;;;5014360;28;20022;-79
2024/03/25 05:32:59;;;;;;;6.57;2.72;;;10.80;99.90;;;;;;5013621;28;20040;-79
2024/03/25 05:35:25;;;;;;;3.72;2.58;;;10.80;99.90;;;;;;5013804;28;20391;-78
2024/03/25 05:37:50;;;;;;;3.88;2.38;;;10.80;99.90;;;;;;5031785;28;20022;-79
2024/03/25 05:40:16;;;;;;;4.32;2.70;;;10.80;99.90;;;;;;5012453;28;20495;-79
2024/03/25 05:42:45;;;;;;;7.07;2.88;;;10.80;99.90;;;;;;5030739;28;20042;-79
2024/03/25 05:45:10;;;;;;;2.67;2.20;;;10.80;99.90;;;;;;5031900;28;20061;-79
2024/03/25 05:47:36;;;;;;;6.32;2.78;;;10.80;99.90;;;;;;5009164;28;20571;-79
2024/03/25 05:50:05;;;;;;;10.70;2.50;;;10.80;99.90;;;;;;5010899;28;20033;-79
2024/03/25 05:52:31;;;;;;;5.22;2.60;;;10.70;99.90;;;;;;5031561;28;20017;-79
2024/03/25 05:54:56;;;;;;;5.68;2.30;;;10.80;99.90;;;;;;5013239;28;20100;-79
2024/03/25 05:57:22;;;;;;;4.25;2.47;;;10.80;99.90;;;;;;5004972;28;20021;-78
2024/03/25 05:59:48;;;;;;;5.78;2.20;;;10.80;99.90;;;;;;5026312;28;20029;-79
2024/03/25 06:02:13;;;;;;;2.67;1.80;;;10.80;99.90;;;;;;5031427;28;20056;-79
2024/03/25 06:04:39;;;;;;;7.13;2.50;;;10.80;99.90;;;;;;5007238;28;20627;-80
2024/03/25 06:07:05;;;;;;;5.00;2.40;;;10.80;99.90;;;;;;5029150;28;20021;-78
2024/03/25 06:09:30;;;;;;;3.97;2.42;;;10.80;99.90;;;;;;5030932;28;20022;-79
2024/03/25 06:11:56;;;;;;;5.43;2.67;;;10.80;99.90;;;;;;5012926;28;20056;-79
2024/03/25 06:14:21;;;;;;;4.15;2.50;;;10.80;99.90;;;;;;5012984;28;20026;-79
2024/03/25 06:16:47;;;;;;;2.90;2.10;;;10.80;99.90;;;;;;5007423;28;20021;-79
2024/03/25 06:19:12;;;;;;;5.63;2.10;;;10.80;99.90;;;;;;5031161;28;20021;-80
2024/03/25 06:21:38;;;;;;;6.78;2.17;;;10.80;99.90;;;;;;5026570;28;20130;-79
2024/03/25 06:24:04;;;;;;;4.07;2.10;;;10.70;99.90;;;;;;5013197;28;20024;-79
2024/03/25 06:26:29;;;;;;;3.58;2.20;;;10.80;99.90;;;;;;5010770;28;20081;-78
2024/03/25 06:28:55;;;;;;;7.10;2.38;;;10.80;99.90;;;;;;5029636;28;20030;-79
2024/03/25 06:34:21;;;;;;;3.28;2.00;;;10.80;99.90;;;;;;5027729;28;20052;-78
2024/03/25 06:36:48;;;;;;;4.05;2.50;;;10.80;99.90;;;;;;5012216;28;20026;-79
2024/03/25 06:39:17;;;;;;;3.45;2.42;;;10.80;99.90;;;;;;5030225;28;20022;-79
2024/03/25 06:41:42;;;;;;;3.63;2.25;;;10.80;99.90;;;;;;5029589;28;20089;-79
2024/03/25 06:44:08;;;;;;;3.90;2.17;;;10.80;99.90;;;;;;5030006;28;20041;-79
2024/03/25 06:46:34;;;;;;;3.42;2.47;;;10.80;99.90;;;;;;5028150;28;20475;-79
2024/03/25 06:48:59;;;;;;;4.47;2.53;;;10.80;99.90;;;;;;5010478;28;20373;-78
2024/03/25 06:51:25;;;;;;;7.22;2.80;;;10.80;99.90;;;;;;5009425;28;20419;-78
2024/03/25 06:53:51;;;;;;;7.38;2.70;;;10.70;99.90;;;;;;5011472;28;20306;-79
2024/03/25 06:56:16;;;;;;;5.20;2.30;;;10.80;99.90;;;;;;5012599;28;20021;-79
2024/03/25 06:58:43;;;;;;;3.33;2.30;;;10.70;99.90;;;;;;5009367;28;20025;-78
2024/03/25 07:01:12;;;;;;;5.70;2.95;;;10.70;99.90;;;;;;5010038;28;20040;-80
2024/03/25 07:03:38;;;;;;;3.67;2.92;;;10.70;99.90;;;;;;5023085;28;20120;-79
2024/03/25 07:06:05;;;;;;;8.13;2.97;;;10.70;99.90;;;;;;5011928;28;20132;-78
2024/03/25 07:08:31;;;;;;;4.55;3.13;;;10.70;99.90;;;;;;5029900;28;20132;-78
2024/03/25 07:10:57;;;;;;;4.20;2.97;;;10.70;99.90;;;;;;5012375;28;20018;-80
2024/03/25 07:13:23;;;;;;;5.28;3.10;;;10.70;99.90;;;;;;5030157;28;20022;-79
2024/03/25 07:15:49;;;;;;;3.47;2.55;;;10.70;99.90;;;;;;5029636;28;20025;-79
2024/03/25 07:18:15;;;;;;;5.18;2.88;;;10.70;99.90;;;;;;5006647;28;20570;-79
2024/03/25 07:20:40;;;;;;;4.25;2.50;;;10.70;99.90;;;;;;5029980;28;20087;-79
2024/03/25 07:23:06;;;;;;;3.58;2.70;;;10.70;99.90;;;;;;5008656;28;20502;-79
2024/03/25 07:25:32;;;;;;;4.05;2.40;;;10.70;99.90;;;;;;5030173;28;20064;-79
2024/03/25 07:27:57;;;;;;;5.10;2.78;;;10.80;99.90;;;;;;5029493;28;20026;-78
2024/03/25 07:30:27;;;;;;;4.22;2.97;;;10.80;99.90;;;;;;5029543;28;20024;-79
2024/03/25 07:32:53;;;;;;;6.10;2.92;;;10.80;99.90;;;;;;5012202;28;20120;-81
2024/03/25 07:35:18;;;;;;;5.20;3.03;;;10.80;99.90;;;;;;5029725;28;20535;-79
2024/03/25 07:37:44;;;;;;;5.40;2.90;;;10.80;99.90;;;;;;5029283;28;20022;-81
2024/03/25 07:40:11;;;;;;;4.88;3.35;;;10.90;99.90;;;;;;5009324;28;20068;-79
2024/03/25 07:42:37;;;;;;;8.43;3.83;;;10.90;99.90;;;;;;5027689;28;20384;-79
2024/03/25 07:45:04;;;;;;;6.63;3.35;;;10.90;99.90;;;;;;5029780;28;20067;-79
2024/03/25 07:47:30;;;;;;;4.70;3.35;;;10.90;99.90;;;;;;5029071;28;20025;-79
2024/03/25 07:49:55;;;;;;;7.43;3.28;;;10.90;99.90;;;;;;5029240;28;20021;-79
2024/03/25 07:52:21;;;;;;;5.25;3.40;;;10.90;99.90;;;;;;5011849;28;20446;-78
2024/03/25 07:54:47;;;;;;;8.57;3.15;;;10.90;99.90;;;;;;5029126;28;20531;-79
2024/03/25 07:57:12;;;;;;;4.03;2.85;;;11.00;99.90;;;;;;5029529;28;20017;-80
2024/03/25 07:59:38;;;;;;;7.15;3.10;;;11.00;99.90;;;;;;5011298;28;20041;-78
2024/03/25 08:02:04;;;;;;;4.90;2.70;;;11.00;99.90;;;;;;5011421;28;20048;-78
2024/03/25 08:04:29;;;;;;;6.03;3.10;;;11.00;99.90;;;;;;5011292;28;20059;-79
2024/03/25 08:06:55;;;;;;;4.30;2.70;;;11.00;99.90;;;;;;5027713;28;20100;-80
2024/03/25 08:09:20;;;;;;;4.63;3.25;;;11.10;99.90;;;;;;5028765;28;20033;-78
2024/03/25 08:11:46;;;;;;;3.22;2.65;;;11.10;99.90;;;;;;5011906;28;20438;-79
2024/03/25 08:14:12;;;;;;;7.82;3.47;;;11.20;99.90;;;;;;5029117;28;20032;-79
2024/03/25 08:16:38;;;;;;;4.95;2.70;;;11.20;99.90;;;;;;5029227;28;20100;-79
2024/03/25 08:19:04;;;;;;;5.13;3.15;;;11.20;99.90;;;;;;5029350;28;20018;-79
2024/03/25 08:21:29;;;;;;;5.65;3.03;;;11.30;99.90;;;;;;5033512;28;20042;-79
2024/03/25 08:23:55;;;;;;;5.05;2.80;;;11.40;99.90;;;;;;5033132;28;20025;-79
2024/03/25 08:26:20;;;;;;;4.90;2.78;;;11.50;99.90;;;;;;5033431;28;20036;-79
2024/03/25 08:28:48;;;;;;;8.20;2.60;;;11.60;99.90;;;;;;5014055;28;20018;-78
2024/03/25 08:31:14;;;;;;;7.22;3.55;;;11.70;99.90;;;;;;5032727;28;20079;-80
2024/03/25 08:33:39;;;;;;;4.18;2.83;;;11.80;99.90;;;;;;5033244;28;20025;-79
2024/03/25 08:36:05;;;;;;;6.10;3.55;;;12.00;99.90;;;;;;5015198;28;20021;-79
2024/03/25 08:38:31;;;;;;;7.22;2.85;;;12.10;99.90;;;;;;5013602;28;20036;-79
2024/03/25 08:40:56;;;;;;;8.93;3.30;;;12.20;99.90;;;;;;5014997;28;20014;-78
2024/03/25 08:43:22;;;;;;;7.85;2.95;;;12.30;99.90;;;;;;5009686;28;20029;-79
2024/03/25 08:45:47;;;;;;;7.55;3.47;;;12.40;99.90;;;;;;5032594;28;20022;-80
2024/03/25 08:48:13;;;;;;;4.53;3.38;;;12.40;99.90;;;;;;5032631;28;20033;-78
2024/03/25 08:50:38;;;;;;;6.15;3.38;;;12.50;99.90;;;;;;5015311;28;20014;-80
2024/03/25 08:53:04;;;;;;;4.80;3.00;;;12.50;99.90;;;;;;5014705;28;20037;-79
2024/03/25 08:55:30;;;;;;;8.90;3.38;;;12.60;99.90;;;;;;5032577;28;20048;-79
2024/03/25 08:57:58;;;;;;;4.07;3.08;;;12.70;99.90;;;;;;5032479;28;20021;-79
2024/03/25 09:00:27;;;;;;;5.90;3.30;;;12.80;99.90;;;;;;5014640;28;20045;-79
2024/03/25 09:02:53;;;;;;;4.55;2.97;;;12.90;99.90;;;;;;5030463;28;20045;-79
2024/03/25 09:05:19;;;;;;;5.05;3.03;;;12.90;99.90;;;;;;5032633;28;20525;-78
2024/03/25 09:07:49;;;;;;;8.98;3.42;;;13.00;99.90;;;;;;5014306;28;20723;-79
2024/03/25 09:12:59;;;;;;;4.22;2.97;;;13.10;99.90;;;;;;5030391;28;20033;-79
2024/03/25 09:15:24;;;;;;;6.70;2.97;;;13.20;99.90;;;;;;5013876;28;20026;-79
2024/03/25 09:17:50;;;;;;;4.85;2.92;;;13.30;99.90;;;;;;5011939;28;20009;-79
2024/03/25 09:20:16;;;;;;;7.05;2.88;;;13.40;99.90;;;;;;5010720;28;20029;-79
2024/03/25 09:22:45;;;;;;;6.13;2.97;;;13.60;99.90;;;;;;5032568;28;20017;-79
2024/03/25 09:25:11;;;;;;;9.63;3.20;;;13.60;99.90;;;;;;5032397;28;20060;-79
2024/03/25 09:27:37;;;;;;;9.10;3.03;;;13.60;99.90;;;;;;5031694;28;20502;-80
2024/03/25 09:30:06;;;;;;;7.10;3.15;;;13.80;99.90;;;;;;5014317;28;20029;-79
2024/03/25 09:32:31;;;;;;;9.32;3.50;;;13.90;99.90;;;;;;5011847;28;20471;-80
2024/03/25 09:34:57;;;;;;;11.88;3.50;;;13.90;99.90;;;;;;5010471;28;20157;-79
2024/03/25 09:37:23;;;;;;;7.00;3.47;;;14.00;99.90;;;;;;5032114;28;20097;-79
2024/03/25 09:39:48;;;;;;;5.63;3.70;;;14.10;99.90;;;;;;5010392;28;20499;-79
2024/03/25 09:42:25;;;;;;;5.68;3.40;;;14.20;99.90;;;;;;5013832;28;20260;-79
2024/03/25 09:44:53;;;;;;;9.57;3.65;;;14.30;99.90;;;;;;5029270;28;20024;-79
2024/03/25 09:47:18;;;;;;;6.53;3.50;;;14.20;99.90;;;;;;5032011;28;20029;-79
2024/03/25 09:49:46;;;;;;;11.15;4.65;;;14.30;99.90;;;;;;5030451;28;20029;-79
2024/03/25 09:52:12;;;;;;;13.85;4.57;;;14.40;99.90;;;;;;5031794;28;20022;-79
2024/03/25 09:54:37;;;;;;;4.57;3.53;;;14.50;99.90;;;;;;5031566;28;20526;-79
2024/03/25 09:57:04;;;;;;;9.07;4.78;;;14.60;99.90;;;;;;5030751;28;20475;-80
2024/03/25 09:59:30;;;;;;;9.00;4.13;;;14.60;99.90;;;;;;5024636;28;20527;-80
2024/03/25 10:01:58;;;;;;;7.25;3.80;;;14.60;99.90;;;;;;5008397;28;20025;-79
2024/03/25 10:04:23;;;;;;;6.93;3.95;;;14.70;99.90;;;;;;5011297;28;20475;-78
2024/03/25 10:06:49;;;;;;;10.85;4.85;;;14.80;99.90;;;;;;5010537;28;20056;-80
2024/03/25 10:09:19;;;;;;;6.93;3.63;;;14.90;99.90;;;;;;5026846;28;20040;-80
2024/03/25 10:11:50;;;;;;;6.70;3.67;;;15.00;99.90;;;;;;5033576;28;20075;-80
2024/03/25 10:14:21;;;;;;;8.57;3.38;;;15.00;99.90;;;;;;5027632;28;20096;-79
2024/03/25 10:16:49;;;;;;;9.18;4.68;;;15.10;99.90;;;;;;5005698;28;20025;-79
2024/03/25 10:19:14;;;;;;;6.40;3.28;;;15.10;99.90;;;;;;5008868;28;20022;-79
2024/03/25 10:21:40;;;;;;;10.07;3.25;;;15.30;99.90;;;;;;5031169;28;20029;-79
2024/03/25 10:24:06;;;;;;;8.02;3.72;;;15.50;99.90;;;;;;5031242;28;20017;-79
2024/03/25 10:26:33;;;;;;;6.45;3.25;;;15.60;99.90;;;;;;5031033;28;20091;-80
2024/03/25 10:29:04;;;;;;;5.97;3.10;;;15.60;99.90;;;;;;5030668;28;20053;-80
2024/03/25 10:31:30;;;;;;;7.53;3.30;;;15.70;99.90;;;;;;5031257;28;20483;-81
2024/03/25 10:33:55;;;;;;;5.05;2.63;;;15.70;99.90;;;;;;5006805;28;20135;-79
2024/03/25 10:36:22;;;;;;;3.72;2.67;;;15.80;99.90;;;;;;5012617;28;20026;-79
2024/03/25 10:38:49;;;;;;;5.70;3.08;;;15.90;99.90;;;;;;5013041;28;20029;-81
2024/03/25 10:41:17;;;;;;;3.42;2.30;;;15.90;99.90;;;;;;5033825;28;20018;-80
2024/03/25 10:43:46;;;;;;;4.15;2.65;;;16.00;99.90;;;;;;5012759;28;20029;-80
2024/03/25 10:46:17;;;;;;;5.95;2.97;;;16.00;99.90;;;;;;5009716;28;20033;-79
2024/03/25 10:48:57;;;;;;;5.10;3.10;;;16.00;99.90;;;;;;5025982;28;20070;-80
2024/03/25 10:51:23;;;;;;;8.00;3.17;;;16.10;99.90;;;;;;5011916;28;20029;-79
2024/03/25 10:53:52;;;;;;;4.72;2.53;;;16.10;99.90;;;;;;5010911;28;20025;-80
2024/03/25 10:56:20;;;;;;;6.75;2.35;;;16.10;99.90;;;;;;5010636;28;20028;-80
2024/03/25 10:58:48;;;;;;;2.55;1.80;;;16.10;99.90;;;;;;5012700;28;20660;-79
2024/03/25 11:01:14;;;;;;;7.32;2.55;;;16.10;99.90;;;;;;5007621;28;20028;-79
2024/03/25 11:03:40;;;;;;;3.72;2.22;;;16.00;99.90;;;;;;5027410;28;20072;-80
2024/03/25 11:06:06;;;;;;;3.88;1.88;;;16.10;99.90;;;;;;5011949;28;20017;-80
2024/03/25 11:08:32;;;;;;;4.25;2.03;;;16.10;99.90;;;;;;5012185;28;20028;-79
2024/03/25 11:10:58;;;;;;;2.08;1.70;;;16.10;99.90;;;;;;5030447;28;20531;-80
2024/03/25 11:13:23;;;;;;;6.70;2.10;;;16.10;99.90;;;;;;5028537;28;20100;-79
2024/03/25 11:15:49;;;;;;;5.70;2.13;;;16.10;99.90;;;;;;5011792;28;20479;-79
2024/03/25 11:18:16;;;;;;;3.00;1.50;;;16.10;99.90;;;;;;5029982;28;20057;-81
2024/03/25 11:20:42;;;;;;;6.07;1.63;;;16.10;99.90;;;;;;5012636;28;20025;-81
2024/03/25 11:23:10;;;;;;;3.83;1.88;;;16.10;99.90;;;;;;5029697;28;20101;-80
2024/03/25 11:25:36;;;;;;;10.07;2.42;;;16.10;99.90;;;;;;5030048;28;20124;-81
2024/03/25 11:28:02;;;;;;;3.38;2.13;;;16.10;99.90;;;;;;5009727;28;20040;-79
2024/03/25 11:30:29;;;;;;;2.88;1.88;;;16.10;99.90;;;;;;5028895;28;20021;-79
2024/03/25 11:32:55;;;;;;;2.58;1.95;;;16.00;99.90;;;;;;5008460;28;20032;-79
2024/03/25 11:35:21;;;;;;;7.82;2.15;;;16.00;99.90;;;;;;5029871;28;20022;-79
2024/03/25 11:37:46;;;;;;;2.78;2.10;;;15.90;99.90;;;;;;5010987;28;20021;-81
2024/03/25 11:40:14;;;;;;;3.60;1.92;;;15.80;99.90;;;;;;5028129;28;20052;-79
2024/03/25 11:42:40;;;;;;;3.05;1.65;;;15.80;99.90;;;;;;5006693;28;20017;-80
2024/03/25 11:45:25;;;;;;;3.97;1.67;;;15.70;99.90;;;;;;5029379;28;20048;-80
2024/03/25 11:47:50;;;;;;;3.60;1.67;;;15.50;99.90;;;;;;5011947;28;20447;-79
2024/03/25 11:50:17;;;;;;;4.00;1.88;;;15.50;99.90;;;;;;5011740;28;20116;-79
2024/03/25 11:52:43;;;;;;;4.03;1.92;;;15.50;99.90;;;;;;5032458;28;20487;-79
2024/03/25 11:55:09;;;;;;;8.32;1.90;;;15.50;99.90;;;;;;5010606;28;20083;-79
2024/03/25 11:57:36;;;;;;;3.88;1.80;;;15.50;99.90;;;;;;5008969;28;20067;-80
2024/03/25 12:00:05;;;;;;;3.75;1.60;;;15.50;99.90;;;;;;5027042;28;20399;-79
2024/03/25 12:02:31;;;;;;;3.10;2.03;;;15.40;99.90;;;;;;5026775;28;20105;-84
2024/03/25 12:04:56;;;;;;;6.03;1.83;;;15.40;99.90;;;;;;5011848;28;20120;-82
2024/03/25 12:07:22;;;;;;;3.72;1.55;;;15.40;99.90;;;;;;5009926;28;20033;-82
2024/03/25 12:12:34;;;;;;;1.45;1.30;;;15.20;99.90;;;;;;5026679;28;20116;-82
2024/03/25 12:15:02;;;;;;;4.07;1.60;;;15.10;99.90;;;;;;5029675;28;20487;-82
2024/03/25 12:17:28;;;;;;;2.72;1.67;;;15.00;99.90;;;;;;5010632;28;20029;-81
2024/03/25 12:20:05;;;;;;;2.60;1.95;;;14.90;99.90;;;;;;5028995;28;20033;-79
2024/03/25 12:22:34;;;;;;;2.95;1.60;;;14.30;99.90;;;;;;5027402;28;20092;-79
2024/03/25 12:25:02;;;;;;;1.48;1.17;;;13.60;99.90;;;;;;5029425;28;20045;-79
2024/03/25 12:27:28;;;;;;;1.45;1.35;;;13.10;99.90;;;;;;5025335;28;20017;-79
2024/03/25 12:30:02;;;;;;;1.67;1.33;;;12.80;99.90;;;;;;5011453;28;20509;-79
2024/03/25 12:32:35;;;;;;;3.13;0.70;;;12.70;99.90;;;;;;5029256;28;20017;-79
2024/03/25 12:35:01;;;;;;;3.00;0.90;;;12.70;99.90;;;;;;5011231;28;20091;-80
2024/03/25 12:37:27;;;;;;;1.60;1.00;;;14.10;99.90;;;;;;5024858;28;20361;-81
2024/03/25 12:39:52;;;;;;;2.50;1.08;;;14.60;99.90;;;;;;5029024;28;20052;-80
2024/03/25 12:42:18;;;;;;;0.95;0.88;;;14.90;99.90;;;;;;5011141;28;20036;-81
2024/03/25 12:44:44;;;;;;;2.03;1.05;;;14.90;99.90;;;;;;5010815;28;20631;-81
2024/03/25 12:47:10;;;;;;;3.08;0.80;;;15.10;99.90;;;;;;5011336;28;20419;-80
2024/03/25 12:49:35;;;;;;;3.10;0.98;;;15.10;99.90;;;;;;5007535;28;20018;-80